WetterOnline ( https://www.wetteronline.de )

Wetter aktuell Ellingen

Aktuelles Wetter: Weißenburg (424m)

6-stündlich | Neueste Meldungen
Ortszeit Temperatur Wetter
Do, 29.09. 8:00 5.5° C Nebel
Do, 29.09. 2:00 6.2° C bewölkt
Mi, 28.09. 20:00 8.8° C leichter Regen
Mi, 28.09. 14:00 11.1° C bewölkt
Mi, 28.09. 8:00 9.2° C leichter Regen
Mi, 28.09. 2:00 7.1° C leichter Regen
Di, 27.09. 20:00 7.0° C leicht bewölkt
Di, 27.09. 14:00 10.9° C wolkig
Ortszeit Temperatur Wetter
Do, 29.09. 10:00 6.7° C bedeckt
Do, 29.09. 9:50 6.7° C bedeckt
Do, 29.09. 9:40 6.8° C bedeckt
Do, 29.09. 9:30 6.6° C bedeckt
Do, 29.09. 9:20 6.6° C bedeckt
Do, 29.09. 9:10 6.2° C bedeckt
Do, 29.09. 9:00 5.8° C Nebel
Do, 29.09. 8:30 5.6° C Nebel
Do, 29.09. 8:00 5.5° C Nebel
Do, 29.09. 7:30 5.5° C bewölkt
Do, 29.09. 7:00 5.9° C bewölkt
Ortszeit Relative Feuchte Sichtweite
Do, 29.09. 8:00 98% 0.5 km
Do, 29.09. 2:00 96% 19 km
Mi, 28.09. 20:00 87% 45 km
Mi, 28.09. 14:00 71% 60 km
Mi, 28.09. 8:00 89% 7 km
Mi, 28.09. 2:00 85% 60 km
Di, 27.09. 20:00 91% >70 km
Di, 27.09. 14:00 75% 55 km
Ortszeit Relative Feuchte Sichtweite
Do, 29.09. 10:00 93% 21 km
Do, 29.09. 9:50 93% -
Do, 29.09. 9:40 95% -
Do, 29.09. 9:30 96% 13 km
Do, 29.09. 9:20 96% -
Do, 29.09. 9:10 97% -
Do, 29.09. 9:00 97% 11 km
Do, 29.09. 8:30 99% 1.1 km
Do, 29.09. 8:00 98% 0.5 km
Do, 29.09. 7:30 97% 4.6 km
Do, 29.09. 7:00 97% 15 km
Ortszeit Niederschlagsmenge Niederschlagsart
Do, 29.09. 8:00 0.1 l/m2 in 12 Std. -
Do, 29.09. 2:00 0.1 l/m2 in 6 Std. Regen
Mi, 28.09. 20:00 0.5 l/m2 in 12 Std. Regen
Mi, 28.09. 14:00 0.5 l/m2 in 6 Std. Regen
Mi, 28.09. 8:00 2 l/m2 in 12 Std. Regen
Mi, 28.09. 2:00 0.1 l/m2 in 6 Std. Regen
Di, 27.09. 20:00 2 l/m2 in 12 Std. Regen
Di, 27.09. 14:00 0.7 l/m2 in 6 Std. Regen
Ortszeit Niederschlagsmenge Niederschlagsart
Do, 29.09. 10:00 0.0 l/m2 in 1 Std. -
Do, 29.09. 9:50 keine Meldung -
Do, 29.09. 9:40 keine Meldung -
Do, 29.09. 9:30 0.0 l/m2 in 1 Std. -
Do, 29.09. 9:20 keine Meldung -
Do, 29.09. 9:10 keine Meldung -
Do, 29.09. 9:00 0.0 l/m2 in 1 Std. -
Do, 29.09. 8:30 0.0 l/m2 in 1 Std. -
Do, 29.09. 8:00 0.0 l/m2 in 1 Std. -
Do, 29.09. 7:30 0.0 l/m2 in 1 Std. -
Do, 29.09. 7:00 0.0 l/m2 in 1 Std. -
Ortszeit Stärke Spitze Richtung
km/h Bft. km/h Grad Sektor
Do, 29.09. 8:00 9 2 19 180° S
Do, 29.09. 2:00 9 2 19 190° S
Mi, 28.09. 20:00 11 2 33 220° SW
Mi, 28.09. 14:00 17 3 33 270° W
Mi, 28.09. 8:00 17 3 31 220° SW
Mi, 28.09. 2:00 13 3 24 190° S
Di, 27.09. 20:00 7 2 47 230° SW
Di, 27.09. 14:00 28 4 43 260° W
Ortszeit Stärke Spitze Richtung
km/h Bft. km/h Grad Sektor
Do, 29.09. 10:00 6 1 11 180° S
Do, 29.09. 9:50 6 1 - 180° S
Do, 29.09. 9:40 7 2 - 170° S
Do, 29.09. 9:30 4 1 7 180° S
Do, 29.09. 9:20 4 1 - 180° S
Do, 29.09. 9:10 4 1 - 200° S
Do, 29.09. 9:00 4 1 14 210° SW
Do, 29.09. 8:30 7 2 14 170° S
Do, 29.09. 8:00 9 2 13 180° S
Do, 29.09. 7:30 4 1 7 190° S
Do, 29.09. 7:00 7 2 14 170° S
Ortszeit Untergrenze Bedeckung Gattung
total tief tief mittel hoch
Do, 29.09. 8:00 30 m 8/8 8/8 - - -
Do, 29.09. 2:00 2100 m 8/8 6/8 - - -
Mi, 28.09. 20:00 1140 m 8/8 7/8 - - -
Mi, 28.09. 14:00 750 m 8/8 4/8 - - -
Mi, 28.09. 8:00 450 m 8/8 8/8 - - -
Mi, 28.09. 2:00 1380 m 7/8 7/8 - - -
Di, 27.09. 20:00 1500 m 3/8 1/8 - - -
Di, 27.09. 14:00 720 m 8/8 1/8 - - -
Ortszeit Bedeckungsgrad in Achtel und Wolkenuntergrenze
Do, 29.09. 10:00 3(60m) 8(2400m)
Do, 29.09. 9:50 3(60m) 8(2400m)
Do, 29.09. 9:40 8
Do, 29.09. 9:30 2(60m) 8(2400m) 8(5100m)
Do, 29.09. 9:20 2(60m) 8(2400m) 8(5100m)
Do, 29.09. 9:10 8
Do, 29.09. 9:00 4(30m) 8(2400m)
Do, 29.09. 8:30 8(<30m) 8(1230m) 8(1440m)
Do, 29.09. 8:00 8(30m) 8(5400m)
Do, 29.09. 7:30 5(60m) 8(5400m) 8(6000m)
Do, 29.09. 7:00 5(60m) 8(5400m) 8(7200m)
Ortszeit Luftdruck NN (hPa) Tendenz (hPa in 3 Std.)
Do, 29.09. 8:00 1003 0,0
Do, 29.09. 2:00 1003 + 0,1
Mi, 28.09. 20:00 1001 + 0,7
Mi, 28.09. 14:00 999 + 0,5
Mi, 28.09. 8:00 996 - 1,4
Mi, 28.09. 2:00 1002 - 1,1
Di, 27.09. 20:00 1003 + 0,2
Di, 27.09. 14:00 1002 + 0,4
Ortszeit Luftdruck NN (hPa) Tendenz (hPa in 3 Std.)
Do, 29.09. 10:00 1003 + 0,7
Do, 29.09. 9:50 1003 keine Meldung
Do, 29.09. 9:40 1003 keine Meldung
Do, 29.09. 9:30 1003 + 0,3
Do, 29.09. 9:20 1003 keine Meldung
Do, 29.09. 9:10 1003 keine Meldung
Do, 29.09. 9:00 1003 + 0,2
Do, 29.09. 8:30 1003 + 0,1
Do, 29.09. 8:00 1003 0,0
Do, 29.09. 7:30 1003 0,0
Do, 29.09. 7:00 1003 - 0,2
Ortszeit Schneehöhe (cm)
Do, 29.09. 8:00 0
Do, 29.09. 2:00 0
Mi, 28.09. 20:00 0
Mi, 28.09. 14:00 0
Mi, 28.09. 8:00 0
Mi, 28.09. 2:00 0
Di, 27.09. 20:00 0
Di, 27.09. 14:00 0
Ortszeit Schneehöhe (cm)
Do, 29.09. 10:00 0
Do, 29.09. 9:50 0
Do, 29.09. 9:40 0
Do, 29.09. 9:30 0
Do, 29.09. 9:20 0
Do, 29.09. 9:10 0
Do, 29.09. 9:00 0
Do, 29.09. 8:30 0
Do, 29.09. 8:00 0
Do, 29.09. 7:30 0
Do, 29.09. 7:00 0
Link zu dieser Seite / Seite empfehlen

Das Wetter in ...